• Join FlightAware (Why Join?)
  • Login
  • US Flag 
04:05AM EDT


 

Airport Tracker/Info


-or-


 

Live Flight TrackerFlight Track Log ✈ N865JM ✈ 26-Jan-2014 ✈ KIAD - KPBI

Flight Track Log - Related Links

Times and Time Zones

All times are in EST time to prevent confusion due to time zone crossing. See the N865JM flight status page for this flight to view local times or setup timezone preferences in your user account.

Time Position Orientation Groundspeed Altitude Reporting Facility
EST Latitude Longitude Course Direction KTS MPH feet Rate Location/Type
08:47AM 38.8833 -77.4333 185° South 195 224 3,000  Level Potomac TRACON
08:48AM 38.8167 -77.4333 180° South 214 246 4,900 2,640 Climbing Potomac TRACON
08:50AM 38.6922 -77.4775 195° South 271 312 10,400 3,180 Climbing Washington Center
08:51AM 38.6147 -77.4994 192° South 283 326 14,000 3,540 Climbing Washington Center
08:52AM 38.4279 -77.5885 185° South  Level Estimated
08:52AM 38.5372 -77.5267 195° South 283 326 17,500  Level Washington Center
08:53AM 38.4533 -77.5483 191° South 294 338 20,700 1,680 Climbing Washington Center
08:54AM 38.3861 -77.5836 202° Southwest 294 338 21,000 300 Climbing Washington Center
08:55AM 38.3306 -77.6589 227° Southwest 286 329 21,300 600 Climbing Washington Center
08:56AM 38.2583 -77.7361 220° Southwest 312 359 22,300 960 Climbing Washington Center
08:57AM 38.1797 -77.8186 220° Southwest 345 397 23,300 960 Climbing Washington Center
08:58AM 38.1011 -77.9006 219° Southwest 365 420 24,300 960 Climbing Washington Center
08:59AM 38.0244 -77.9800 219° Southwest 365 420 25,300 1,020 Climbing Washington Center
09:00AM 37.9497 -78.0567 219° Southwest 358 412 26,400 1,020 Climbing Washington Center
09:01AM 37.8711 -78.1356 218° Southwest 364 419 27,400 960 Climbing Washington Center
09:02AM 37.7961 -78.2197 222° Southwest 364 419 28,400 1,140 Climbing Washington Center
09:03AM 37.7194 -78.2986 219° Southwest 364 419 29,700 1,320 Climbing Washington Center
09:04AM 37.6425 -78.3797 220° Southwest 364 419 31,100 1,380 Climbing Washington Center
09:05AM 37.5656 -78.4556 218° Southwest 359 413 32,500 1,380 Climbing Washington Center
09:06AM 37.4906 -78.5339 220° Southwest 359 413 34,000 1,320 Climbing Washington Center
09:07AM 37.4158 -78.6094 219° Southwest 359 413 35,200 1,020 Climbing Washington Center
09:08AM 37.3322 -78.6950 219° Southwest 359 413 36,100 1,020 Climbing Washington Center
09:09AM 37.2550 -78.7700 218° Southwest 359 413 37,300 900 Climbing Washington Center
09:10AM 37.1800 -78.8478 220° Southwest 359 413 38,000 300 Climbing Washington Center
09:11AM 37.1008 -78.9250 218° Southwest 359 413 38,000  Level Washington Center
09:12AM 37.0233 -79.0075 220° Southwest 359 413 38,000  Level Washington Center
09:13AM 36.9461 -79.0822 218° Southwest 359 413 38,000  Level Washington Center
09:14AM 36.8686 -79.1617 219° Southwest 359 413 38,000  Level Washington Center
09:15AM 36.7933 -79.2336 217° Southwest 359 413 38,000  Level Washington Center
09:16AM 36.7181 -79.3128 220° Southwest 359 413 38,000  Level Washington Center
09:17AM 36.6361 -79.3917 218° Southwest 364 419 38,000  Level Washington Center
09:18AM 36.5564 -79.4706 218° Southwest 364 419 38,000  Level Washington Center
09:19AM 36.4183 -79.6064 218° Southwest 372 428 38,000  Level Atlanta Center
09:20AM 36.3356 -79.6856 218° Southwest 377 434 38,000  Level Atlanta Center
09:21AM 36.2550 -79.7647 218° Southwest 382 440 38,000  Level Atlanta Center
09:22AM 36.1744 -79.8461 219° Southwest 382 440 38,000  Level Atlanta Center
09:23AM 36.0936 -79.9247 218° Southwest 382 440 38,000  Level Atlanta Center
09:24AM 35.9894 -79.9917 207° Southwest 382 440 38,000  Level Atlanta Center
09:25AM 35.8822 -80.0278 195° South 394 453 38,000  Level Atlanta Center
09:26AM 35.7708 -80.0667 196° South 400 460 38,000  Level Atlanta Center
09:27AM 35.6842 -80.0939 194° South 400 460 38,000  Level Atlanta Center
09:28AM 35.5664 -80.1325 195° South 405 466 38,000  Level Atlanta Center
09:29AM 35.4569 -80.1683 195° South 410 472 38,000  Level Atlanta Center
09:30AM 35.3517 -80.2039 195° South 410 472 38,000  Level Atlanta Center
09:31AM 35.2422 -80.2369 194° South 405 466 38,000  Level Atlanta Center
09:33AM 35.0717 -80.2931 195° South 408 470 38,000  Level Jacksonville Center
09:34AM 34.9639 -80.3242 193° South 402 463 38,000  Level Jacksonville Center
09:35AM 34.8542 -80.3653 197° South 397 457 38,000  Level Jacksonville Center
09:36AM 34.7442 -80.3989 194° South 396 456 38,000  Level Jacksonville Center
09:37AM 34.6344 -80.4350 195° South 396 456 38,000  Level Jacksonville Center
09:38AM 34.5286 -80.4656 193° South 396 456 38,000  Level Jacksonville Center
09:39AM 34.4208 -80.4989 194° South 396 456 38,000  Level Jacksonville Center
09:40AM 34.3131 -80.5344 195° South 396 456 38,000  Level Jacksonville Center
09:41AM 34.2094 -80.5675 195° South 396 456 38,000  Level Jacksonville Center
09:42AM 34.0994 -80.6056 196° South 396 456 38,000  Level Jacksonville Center
09:43AM 33.9936 -80.6358 193° South 396 456 38,000  Level Jacksonville Center
09:44AM 33.8878 -80.6686 194° South 396 456 38,000  Level Jacksonville Center
09:45AM 33.7800 -80.7036 195° South 396 456 38,000  Level Jacksonville Center
09:46AM 33.6739 -80.7364 194° South 396 456 38,000  Level Jacksonville Center
09:47AM 33.5661 -80.7689 194° South 396 456 38,000  Level Jacksonville Center
09:48AM 33.4603 -80.8039 195° South 396 456 38,000  Level Jacksonville Center
09:49AM 33.3500 -80.8361 194° South 396 456 38,000  Level Jacksonville Center
09:50AM 33.2356 -80.8511 186° South 401 461 38,000  Level Jacksonville Center
09:51AM 33.1231 -80.8611 184° South 412 474 38,000  Level Jacksonville Center
09:52AM 33.0189 -80.8736 186° South 412 474 38,000  Level Jacksonville Center
09:53AM 32.9064 -80.8883 186° South 412 474 38,000  Level Jacksonville Center
09:54AM 32.7939 -80.9008 185° South 412 474 38,000  Level Jacksonville Center
09:55AM 32.6792 -80.9156 186° South 412 474 38,000  Level Jacksonville Center
09:56AM 32.5667 -80.9281 185° South 412 474 38,000  Level Jacksonville Center
09:57AM 32.4564 -80.9428 186° South 407 468 38,000  Level Jacksonville Center
09:58AM 32.3333 -80.9550 185° South 402 463 38,000  Level Jacksonville Center
09:59AM 32.2333 -80.9672 186° South 410 472 38,000  Level Jacksonville Center
10:00AM 32.1103 -80.9794 185° South 408 470 38,000  Level Jacksonville Center
10:01AM 31.9956 -80.9917 185° South 408 470 38,000  Level Jacksonville Center
10:02AM 31.8936 -81.0061 187° South 408 470 38,000  Level Jacksonville Center
10:03AM 31.7706 -81.0206 186° South 408 470 38,000  Level Jacksonville Center
10:04AM 31.6581 -81.0353 186° South 408 470 38,000  Level Jacksonville Center
10:05AM 31.5581 -81.0469 186° South 407 468 38,000  Level Jacksonville Center
10:06AM 31.4328 -81.0422 178° South 407 468 38,000  Level Jacksonville Center
10:07AM 31.3133 -81.0250 173° South 421 484 38,000  Level Jacksonville Center
10:08AM 31.1983 -81.0103 174° South 427 491 38,000  Level Jacksonville Center
10:09AM 31.0814 -80.9956 174° South 422 486 38,000  Level Jacksonville Center
10:10AM 30.9661 -80.9786 173° South 422 486 38,000  Level Jacksonville Center
10:11AM 30.8492 -80.9639 174° South 427 491 38,000  Level Jacksonville Center
10:12AM 30.7319 -80.9472 173° South 427 491 38,000  Level Jacksonville Center
10:13AM 30.6169 -80.9325 174° South 427 491 38,000  Level Jacksonville Center
10:14AM 30.5017 -80.9156 173° South 427 491 38,000  Level Jacksonville Center
10:15AM 30.3825 -80.9011 174° South 427 491 38,000  Level Jacksonville Center
10:16AM 30.2675 -80.8844 173° South 427 491 38,000  Level Jacksonville Center
10:17AM 30.1481 -80.8700 174° South 427 491 38,000  Level Jacksonville Center
10:18AM 30.0331 -80.8533 173° South 422 486 38,000  Level Jacksonville Center
10:19AM 29.9158 -80.8367 173° South 422 486 38,000  Level Jacksonville Center
10:20AM 29.7989 -80.8222 174° South 422 486 38,000 -60 Level Jacksonville Center
10:21AM 29.6817 -80.8081 174° South 422 486 37,900 -420 Descending Jacksonville Center
10:23AM 29.4342 -80.7778 174° South 420 483 36,800 -600 Descending Miami Center
10:24AM 29.3178 -80.7664 175° South 421 484 36,000 -420 Descending Miami Center
10:25AM 29.1992 -80.7478 172° South 426 490 36,000  Level Miami Center
10:26AM 29.0831 -80.7294 172° South 426 490 36,000  Level Miami Center
10:27AM 28.9644 -80.7136 173° South 426 490 36,000  Level Miami Center
10:28AM 28.8628 -80.6981 172° South 419 482 36,000  Level Miami Center
10:29AM 28.7422 -80.6819 173° South 428 493 36,000 -1,020 Level Miami Center
10:30AM 28.6167 -80.6139 155° Southeast 435 501 34,000 -2,100 Descending Miami Center
10:31AM 28.5103 -80.5394 148° Southeast 445 512 31,800 -2,400 Descending Miami Center
10:32AM 28.4036 -80.4628 148° Southeast 457 526 29,300 -2,520 Descending Miami Center
10:33AM 28.3072 -80.3936 148° Southeast 463 533 26,800 -2,460 Descending Miami Center
10:34AM 28.1914 -80.3500 162° South 447 514 24,400 -2,580 Descending Miami Center
10:35AM 28.0628 -80.3178 168° South 432 497 21,800 -2,400 Descending Miami Center
10:36AM 27.9528 -80.2886 167° South 422 486 19,700 -2,460 Descending Miami Center
10:37AM 27.8428 -80.2619 168° South 414 476 16,900 -2,880 Descending Miami Center
10:38AM 27.7494 -80.2403 168° South 401 461 14,000 -2,220 Descending Miami Center
10:39AM 27.6497 -80.2164 168° South 384 442 12,500 -1,320 Descending Miami Center
10:40AM 27.5397 -80.1872 167° South 367 422 11,400 -1,080 Descending Miami Center
10:41AM 27.4464 -80.1658 169° South 362 417 10,400 -720 Descending Miami Center
10:42AM 27.3569 -80.1447 168° South 344 396 10,000 -240 Descending Miami Center
10:43AM 27.2864 -80.1333 172° South 308 354 10,000 -420 Level Miami Center
10:44AM 27.2097 -80.1100 165° South 290 334 9,200 -900 Descending Miami Center
10:45AM 27.1311 -80.0728 157° South 280 322 8,200 -1,020 Descending Miami Center
10:46AM 27.0542 -80.0519 166° South 280 322 7,200 -1,020 Descending Miami Center
10:47AM 26.9794 -80.0361 169° South 280 322 6,200 -960 Descending Miami Center
10:48AM 26.9128 -80.0225 170° South 274 315 5,300 -1,020 Descending Miami Center
10:49AM 26.8536 -79.9697 141° Southeast 254 292 4,200 -1,140 Descending Miami Center
10:51AM 26.7386 -80.0547 265° West  Level Estimated
10:58AM 26.6832 -80.0956 110° East  Level Estimated
10:59AM 26.6832 -80.0956 110° East  Level Estimated
11:00AM 26.6832 -80.0956 110° East  Level Estimated
11:01AM 26.6832 -80.0956 110° East  Level Estimated
11:02AM 26.6832 -80.0956 110° East  Level Estimated
11:03AM 26.6832 -80.0956 110° East  Level Estimated
11:04AM 26.6832 -80.0956 110° East  Level Estimated